sensor_id;sensor_type;location;lat;lon;timestamp;pressure;altitude;pressure_sealevel;temperature;humidity
63351;BME280;54336;51.058;17.040;2022-07-05T00:05:08;100296.28;;;25.67;61.81
63351;BME280;54336;51.058;17.040;2022-07-05T00:11:00;100278.28;;;25.93;62.08
63351;BME280;54336;51.058;17.040;2022-07-05T00:16:53;100279.88;;;26.29;59.89
63351;BME280;54336;51.058;17.040;2022-07-05T00:22:46;100293.66;;;26.23;59.65
63351;BME280;54336;51.058;17.040;2022-07-05T00:28:39;100277.69;;;26.11;61.19
63351;BME280;54336;51.058;17.040;2022-07-05T00:34:32;100280.94;;;25.97;62.94
63351;BME280;54336;51.058;17.040;2022-07-05T00:40:25;100284.75;;;26.16;60.82
63351;BME280;54336;51.058;17.040;2022-07-05T00:46:17;100277.84;;;25.95;62.50
63351;BME280;54336;51.058;17.040;2022-07-05T00:52:11;100274.13;;;25.98;62.61
63351;BME280;54336;51.058;17.040;2022-07-05T00:58:11;100277.09;;;25.81;64.61
63351;BME280;54336;51.058;17.040;2022-07-05T01:04:03;100261.28;;;26.00;62.56
63351;BME280;54336;51.058;17.040;2022-07-05T01:09:56;100256.16;;;25.86;65.16
63351;BME280;54336;51.058;17.040;2022-07-05T01:15:49;100248.22;;;25.85;64.32
63351;BME280;54336;51.058;17.040;2022-07-05T01:21:44;100253.69;;;26.23;60.25
63351;BME280;54336;51.058;17.040;2022-07-05T01:27:38;100251.81;;;26.20;59.69
63351;BME280;54336;51.058;17.040;2022-07-05T01:33:30;100261.19;;;26.38;58.14
63351;BME280;54336;51.058;17.040;2022-07-05T01:39:23;100267.13;;;26.28;58.33
63351;BME280;54336;51.058;17.040;2022-07-05T01:45:17;100268.13;;;26.34;57.76
63351;BME280;54336;51.058;17.040;2022-07-05T01:51:33;100276.50;;;26.34;56.82
63351;BME280;54336;51.058;17.040;2022-07-05T01:57:28;100284.91;;;26.34;56.87
63351;BME280;54336;51.058;17.040;2022-07-05T02:03:21;100278.00;;;26.26;57.86
63351;BME280;54336;51.058;17.040;2022-07-05T02:09:35;100274.47;;;26.00;58.60
63351;BME280;54336;51.058;17.040;2022-07-05T02:15:30;100271.44;;;26.07;58.92
63351;BME280;54336;51.058;17.040;2022-07-05T02:21:23;100276.50;;;25.36;62.81
63351;BME280;54336;51.058;17.040;2022-07-05T02:27:17;100284.84;;;26.12;56.79
63351;BME280;54336;51.058;17.040;2022-07-05T02:33:11;100301.47;;;26.28;55.15
63351;BME280;54336;51.058;17.040;2022-07-05T02:39:04;100298.69;;;26.28;54.93
63351;BME280;54336;51.058;17.040;2022-07-05T02:44:58;100302.50;;;26.22;54.95
63351;BME280;54336;51.058;17.040;2022-07-05T02:50:52;100298.03;;;26.24;54.92
63351;BME280;54336;51.058;17.040;2022-07-05T02:56:45;100306.28;;;26.28;54.78
63351;BME280;54336;51.058;17.040;2022-07-05T03:02:40;100309.16;;;26.37;54.76
63351;BME280;54336;51.058;17.040;2022-07-05T03:08:34;100310.09;;;26.34;55.51
63351;BME280;54336;51.058;17.040;2022-07-05T03:14:29;100307.59;;;25.89;58.36
63351;BME280;54336;51.058;17.040;2022-07-05T03:20:21;100320.28;;;26.41;55.37
63351;BME280;54336;51.058;17.040;2022-07-05T03:26:15;100329.53;;;26.37;54.83
63351;BME280;54336;51.058;17.040;2022-07-05T03:32:12;100344.00;;;26.49;54.33
63351;BME280;54336;51.058;17.040;2022-07-05T03:38:05;100358.19;;;26.54;53.65
63351;BME280;54336;51.058;17.040;2022-07-05T03:43:59;100364.91;;;26.44;54.35
63351;BME280;54336;51.058;17.040;2022-07-05T03:49:53;100365.16;;;26.72;53.34
63351;BME280;54336;51.058;17.040;2022-07-05T03:55:47;100372.63;;;26.87;52.80
63351;BME280;54336;51.058;17.040;2022-07-05T04:01:40;100380.03;;;26.81;53.20
63351;BME280;54336;51.058;17.040;2022-07-05T04:07:33;100391.00;;;26.28;56.40
63351;BME280;54336;51.058;17.040;2022-07-05T04:13:27;100384.06;;;26.33;57.63
63351;BME280;54336;51.058;17.040;2022-07-05T04:19:22;100368.38;;;26.23;58.19
63351;BME280;54336;51.058;17.040;2022-07-05T04:25:17;100377.13;;;26.25;58.04
63351;BME280;54336;51.058;17.040;2022-07-05T04:31:17;100359.63;;;26.59;55.76
63351;BME280;54336;51.058;17.040;2022-07-05T04:37:12;100354.03;;;26.59;55.71
63351;BME280;54336;51.058;17.040;2022-07-05T04:43:05;100364.56;;;26.55;55.40
63351;BME280;54336;51.058;17.040;2022-07-05T04:48:58;100365.69;;;26.45;56.11
63351;BME280;54336;51.058;17.040;2022-07-05T04:54:51;100365.91;;;26.50;56.51
63351;BME280;54336;51.058;17.040;2022-07-05T05:00:44;100363.75;;;26.67;55.72
63351;BME280;54336;51.058;17.040;2022-07-05T05:06:37;100377.13;;;26.85;54.66
63351;BME280;54336;51.058;17.040;2022-07-05T05:12:30;100384.56;;;27.01;54.82
63351;BME280;54336;51.058;17.040;2022-07-05T05:18:22;100396.97;;;26.65;55.97
63351;BME280;54336;51.058;17.040;2022-07-05T05:24:19;100411.13;;;26.96;54.14
63351;BME280;54336;51.058;17.040;2022-07-05T05:30:13;100423.22;;;26.46;56.45
63351;BME280;54336;51.058;17.040;2022-07-05T05:36:06;100414.22;;;26.76;54.98
63351;BME280;54336;51.058;17.040;2022-07-05T05:41:58;100405.81;;;26.76;55.86
63351;BME280;54336;51.058;17.040;2022-07-05T05:47:55;100415.06;;;27.20;54.12
63351;BME280;54336;51.058;17.040;2022-07-05T05:53:48;100421.50;;;28.05;51.10
63351;BME280;54336;51.058;17.040;2022-07-05T05:59:40;100424.63;;;28.47;49.87
63351;BME280;54336;51.058;17.040;2022-07-05T06:05:33;100423.28;;;28.79;49.21
63351;BME280;54336;51.058;17.040;2022-07-05T06:11:25;100430.34;;;29.21;48.59
63351;BME280;54336;51.058;17.040;2022-07-05T06:17:18;100431.41;;;29.69;47.20
63351;BME280;54336;51.058;17.040;2022-07-05T07:29:44;100488.59;;;24.49;100.00
63351;BME280;54336;51.058;17.040;2022-07-05T07:35:37;100500.50;;;25.31;100.00
63351;BME280;54336;51.058;17.040;2022-07-05T07:41:29;100507.66;;;25.90;100.00
63351;BME280;54336;51.058;17.040;2022-07-05T07:47:22;100502.69;;;26.35;99.59
63351;BME280;54336;51.058;17.040;2022-07-05T07:53:15;100494.22;;;25.26;100.00
63351;BME280;54336;51.058;17.040;2022-07-05T07:59:09;100491.91;;;25.09;100.00
63351;BME280;54336;51.058;17.040;2022-07-05T08:05:01;100488.31;;;24.92;100.00
63351;BME280;54336;51.058;17.040;2022-07-05T08:10:54;100483.72;;;24.69;100.00
63351;BME280;54336;51.058;17.040;2022-07-05T08:16:48;100496.88;;;24.68;100.00
63351;BME280;54336;51.058;17.040;2022-07-05T08:22:43;100507.41;;;24.45;100.00
63351;BME280;54336;51.058;17.040;2022-07-05T08:28:35;100502.03;;;24.18;100.00
63351;BME280;54336;51.058;17.040;2022-07-05T08:34:48;100500.44;;;23.80;100.00
63351;BME280;54336;51.058;17.040;2022-07-05T08:40:46;100515.78;;;23.69;100.00
63351;BME280;54336;51.058;17.040;2022-07-05T08:46:39;100507.41;;;23.49;100.00
63351;BME280;54336;51.058;17.040;2022-07-05T08:52:36;100513.34;;;23.27;100.00
63351;BME280;54336;51.058;17.040;2022-07-05T08:58:34;100508.78;;;22.94;100.00
63351;BME280;54336;51.058;17.040;2022-07-05T09:04:31;100530.94;;;22.74;100.00
63351;BME280;54336;51.058;17.040;2022-07-05T09:10:29;100522.44;;;22.58;100.00
63351;BME280;54336;51.058;17.040;2022-07-05T09:16:21;100519.88;;;22.43;100.00
63351;BME280;54336;51.058;17.040;2022-07-05T09:22:15;100518.19;;;22.50;100.00
63351;BME280;54336;51.058;17.040;2022-07-05T09:28:08;100524.50;;;22.54;100.00
63351;BME280;54336;51.058;17.040;2022-07-05T09:34:09;100529.94;;;22.61;100.00
63351;BME280;54336;51.058;17.040;2022-07-05T09:40:02;100527.38;;;22.73;100.00
63351;BME280;54336;51.058;17.040;2022-07-05T09:46:03;100514.34;;;22.94;100.00
63351;BME280;54336;51.058;17.040;2022-07-05T09:51:56;100510.09;;;23.52;100.00
63351;BME280;54336;51.058;17.040;2022-07-05T09:57:49;100515.28;;;23.74;100.00
63351;BME280;54336;51.058;17.040;2022-07-05T10:03:59;100518.44;;;23.76;100.00
63351;BME280;54336;51.058;17.040;2022-07-05T10:09:54;100524.94;;;23.89;100.00
63351;BME280;54336;51.058;17.040;2022-07-05T10:15:47;100527.97;;;24.34;99.28
63351;BME280;54336;51.058;17.040;2022-07-05T10:21:41;100527.41;;;24.59;95.87
63351;BME280;54336;51.058;17.040;2022-07-05T10:27:55;100530.53;;;24.61;96.64
63351;BME280;54336;51.058;17.040;2022-07-05T10:33:49;100522.78;;;24.69;95.19
63351;BME280;54336;51.058;17.040;2022-07-05T10:39:42;100527.66;;;25.14;93.09
63351;BME280;54336;51.058;17.040;2022-07-05T10:45:36;100518.09;;;26.15;81.99
63351;BME280;54336;51.058;17.040;2022-07-05T10:51:35;100515.34;;;26.65;74.40
63351;BME280;54336;51.058;17.040;2022-07-05T10:57:27;100516.66;;;26.99;70.96
63351;BME280;54336;51.058;17.040;2022-07-05T11:03:36;100515.34;;;27.82;65.48
63351;BME280;54336;51.058;17.040;2022-07-05T11:09:30;100517.88;;;28.42;66.43
63351;BME280;54336;51.058;17.040;2022-07-05T11:15:22;100511.13;;;28.80;65.03
63351;BME280;54336;51.058;17.040;2022-07-05T11:21:21;100511.06;;;29.20;59.87
63351;BME280;54336;51.058;17.040;2022-07-05T11:27:13;100509.50;;;29.47;56.88
63351;BME280;54336;51.058;17.040;2022-07-05T11:33:32;100503.69;;;29.87;54.27
63351;BME280;54336;51.058;17.040;2022-07-05T11:39:24;100509.13;;;29.99;54.29
63351;BME280;54336;51.058;17.040;2022-07-05T11:45:19;100512.88;;;30.06;54.07
63351;BME280;54336;51.058;17.040;2022-07-05T11:51:14;100509.16;;;30.42;51.17
63351;BME280;54336;51.058;17.040;2022-07-05T11:57:08;100499.22;;;31.36;47.90
63351;BME280;54336;51.058;17.040;2022-07-05T12:03:11;100494.09;;;32.24;42.03
63351;BME280;54336;51.058;17.040;2022-07-05T12:09:04;100494.19;;;32.29;42.37
63351;BME280;54336;51.058;17.040;2022-07-05T12:14:58;100499.59;;;31.44;42.18
63351;BME280;54336;51.058;17.040;2022-07-05T12:20:50;100494.72;;;31.06;41.59
63351;BME280;54336;51.058;17.040;2022-07-05T12:26:43;100495.28;;;30.71;42.22
63351;BME280;54336;51.058;17.040;2022-07-05T12:32:54;100489.28;;;30.45;43.68
63351;BME280;54336;51.058;17.040;2022-07-05T12:38:48;100489.44;;;30.42;43.45
63351;BME280;54336;51.058;17.040;2022-07-05T12:44:40;100486.13;;;30.19;42.19
63351;BME280;54336;51.058;17.040;2022-07-05T12:50:53;100478.41;;;29.59;42.77
63351;BME280;54336;51.058;17.040;2022-07-05T12:57:06;100482.09;;;28.74;44.08
63351;BME280;54336;51.058;17.040;2022-07-05T13:03:17;100472.41;;;28.66;46.17
63351;BME280;54336;51.058;17.040;2022-07-05T13:09:12;100470.81;;;28.55;47.27
63351;BME280;54336;51.058;17.040;2022-07-05T13:15:05;100470.25;;;27.67;52.54
63351;BME280;54336;51.058;17.040;2022-07-05T13:20:57;100459.84;;;27.33;54.66
63351;BME280;54336;51.058;17.040;2022-07-05T13:26:51;100451.25;;;27.71;52.01
63351;BME280;54336;51.058;17.040;2022-07-05T13:32:43;100446.94;;;28.11;49.63
63351;BME280;54336;51.058;17.040;2022-07-05T13:38:35;100439.06;;;27.96;50.75
63351;BME280;54336;51.058;17.040;2022-07-05T13:44:27;100443.78;;;27.68;49.74
63351;BME280;54336;51.058;17.040;2022-07-05T13:50:21;100438.13;;;27.46;50.09
63351;BME280;54336;51.058;17.040;2022-07-05T13:56:27;100440.66;;;27.66;49.56
63351;BME280;54336;51.058;17.040;2022-07-05T14:02:19;100446.88;;;27.48;47.38
63351;BME280;54336;51.058;17.040;2022-07-05T14:08:12;100448.56;;;27.24;48.46
63351;BME280;54336;51.058;17.040;2022-07-05T14:14:05;100442.66;;;27.44;47.47
63351;BME280;54336;51.058;17.040;2022-07-05T14:19:57;100443.63;;;27.50;45.93
63351;BME280;54336;51.058;17.040;2022-07-05T14:25:50;100438.84;;;27.60;43.35
63351;BME280;54336;51.058;17.040;2022-07-05T14:31:42;100430.97;;;27.98;44.83
63351;BME280;54336;51.058;17.040;2022-07-05T14:37:35;100430.44;;;28.22;44.20
63351;BME280;54336;51.058;17.040;2022-07-05T14:43:28;100425.38;;;28.29;43.34
63351;BME280;54336;51.058;17.040;2022-07-05T14:49:21;100416.72;;;28.24;43.22
63351;BME280;54336;51.058;17.040;2022-07-05T14:55:15;100414.50;;;28.00;44.19
63351;BME280;54336;51.058;17.040;2022-07-05T15:01:08;100419.09;;;27.85;43.83
63351;BME280;54336;51.058;17.040;2022-07-05T15:07:01;100417.00;;;27.55;44.42
63351;BME280;54336;51.058;17.040;2022-07-05T15:12:54;100399.72;;;27.56;46.08
63351;BME280;54336;51.058;17.040;2022-07-05T15:18:46;100402.06;;;27.58;43.87
63351;BME280;54336;51.058;17.040;2022-07-05T15:24:40;100410.16;;;28.09;44.38
63351;BME280;54336;51.058;17.040;2022-07-05T15:30:33;100402.19;;;28.56;42.36
63351;BME280;54336;51.058;17.040;2022-07-05T15:36:25;100396.91;;;28.68;41.24
63351;BME280;54336;51.058;17.040;2022-07-05T15:42:19;100396.16;;;28.85;41.41
63351;BME280;54336;51.058;17.040;2022-07-05T15:48:12;100387.25;;;29.24;40.10
63351;BME280;54336;51.058;17.040;2022-07-05T15:54:05;100384.31;;;28.91;38.42
63351;BME280;54336;51.058;17.040;2022-07-05T15:59:57;100371.97;;;29.06;39.08
63351;BME280;54336;51.058;17.040;2022-07-05T16:05:50;100382.72;;;28.80;38.91
63351;BME280;54336;51.058;17.040;2022-07-05T16:11:43;100382.63;;;28.25;38.71
63351;BME280;54336;51.058;17.040;2022-07-05T16:17:35;100371.28;;;28.38;39.41
63351;BME280;54336;51.058;17.040;2022-07-05T16:23:29;100381.63;;;28.59;39.29
63351;BME280;54336;51.058;17.040;2022-07-05T16:29:22;100372.25;;;28.53;39.67
63351;BME280;54336;51.058;17.040;2022-07-05T16:35:16;100390.22;;;28.16;39.87
63351;BME280;54336;51.058;17.040;2022-07-05T16:41:08;100394.44;;;27.80;39.95
63351;BME280;54336;51.058;17.040;2022-07-05T16:47:01;100379.31;;;27.77;40.50
63351;BME280;54336;51.058;17.040;2022-07-05T16:52:54;100379.16;;;27.50;41.29
63351;BME280;54336;51.058;17.040;2022-07-05T17:04:40;100369.59;;;27.38;41.98
63351;BME280;54336;51.058;17.040;2022-07-05T17:10:34;100367.38;;;27.33;42.61
63351;BME280;54336;51.058;17.040;2022-07-05T17:16:27;100370.69;;;27.41;42.42
63351;BME280;54336;51.058;17.040;2022-07-05T17:22:20;100374.72;;;27.40;42.68
63351;BME280;54336;51.058;17.040;2022-07-05T17:28:12;100362.38;;;27.28;42.77
63351;BME280;54336;51.058;17.040;2022-07-05T17:34:04;100351.94;;;27.29;42.56
63351;BME280;54336;51.058;17.040;2022-07-05T17:39:57;100360.34;;;27.29;42.51
63351;BME280;54336;51.058;17.040;2022-07-05T17:45:49;100360.03;;;27.05;42.91
63351;BME280;54336;51.058;17.040;2022-07-05T17:51:42;100357.63;;;26.81;43.14
63351;BME280;54336;51.058;17.040;2022-07-05T17:57:58;100361.03;;;26.42;43.75
63351;BME280;54336;51.058;17.040;2022-07-05T18:03:52;100360.13;;;26.19;44.64
63351;BME280;54336;51.058;17.040;2022-07-05T18:09:44;100363.38;;;26.05;45.15
63351;BME280;54336;51.058;17.040;2022-07-05T18:15:38;100362.63;;;25.92;45.69
63351;BME280;54336;51.058;17.040;2022-07-05T18:21:31;100363.56;;;25.60;46.88
63351;BME280;54336;51.058;17.040;2022-07-05T18:27:24;100366.66;;;25.36;47.25
63351;BME280;54336;51.058;17.040;2022-07-05T18:33:16;100364.72;;;25.20;47.77
63351;BME280;54336;51.058;17.040;2022-07-05T18:39:09;100363.03;;;24.94;48.72
63351;BME280;54336;51.058;17.040;2022-07-05T18:45:04;100369.84;;;24.64;50.76
63351;BME280;54336;51.058;17.040;2022-07-05T18:50:58;100367.06;;;24.48;51.85
63351;BME280;54336;51.058;17.040;2022-07-05T18:56:59;100374.97;;;24.17;53.05
63351;BME280;54336;51.058;17.040;2022-07-05T19:03:00;100373.66;;;23.89;54.43
63351;BME280;54336;51.058;17.040;2022-07-05T19:08:54;100383.41;;;23.61;56.02
63351;BME280;54336;51.058;17.040;2022-07-05T19:15:06;100379.91;;;23.37;58.01
63351;BME280;54336;51.058;17.040;2022-07-05T19:21:01;100384.84;;;23.09;58.55
63351;BME280;54336;51.058;17.040;2022-07-05T19:27:06;100392.41;;;22.89;61.54
63351;BME280;54336;51.058;17.040;2022-07-05T19:32:59;100393.59;;;22.64;65.71
63351;BME280;54336;51.058;17.040;2022-07-05T19:38:52;100400.91;;;22.31;66.45
63351;BME280;54336;51.058;17.040;2022-07-05T19:44:46;100400.50;;;22.02;69.30
63351;BME280;54336;51.058;17.040;2022-07-05T19:50:38;100409.63;;;21.76;75.35
63351;BME280;54336;51.058;17.040;2022-07-05T19:56:34;100407.94;;;21.55;72.61
63351;BME280;54336;51.058;17.040;2022-07-05T20:02:28;100412.63;;;21.27;76.24
63351;BME280;54336;51.058;17.040;2022-07-05T20:08:21;100402.63;;;20.96;78.09
63351;BME280;54336;51.058;17.040;2022-07-05T20:14:16;100403.53;;;20.86;80.46
63351;BME280;54336;51.058;17.040;2022-07-05T20:20:09;100409.47;;;20.84;79.99
63351;BME280;54336;51.058;17.040;2022-07-05T20:26:02;100411.19;;;20.71;81.05
63351;BME280;54336;51.058;17.040;2022-07-05T20:31:56;100415.75;;;20.47;83.42
63351;BME280;54336;51.058;17.040;2022-07-05T20:37:52;100401.59;;;20.31;85.39
63351;BME280;54336;51.058;17.040;2022-07-05T20:43:46;100410.00;;;20.16;88.16
63351;BME280;54336;51.058;17.040;2022-07-05T20:49:43;100398.63;;;20.00;89.99
63351;BME280;54336;51.058;17.040;2022-07-05T20:55:36;100404.28;;;19.86;100.00
63351;BME280;54336;51.058;17.040;2022-07-05T21:01:28;100412.28;;;19.70;84.69
63351;BME280;54336;51.058;17.040;2022-07-05T21:07:22;100409.16;;;19.60;91.71
63351;BME280;54336;51.058;17.040;2022-07-05T21:13:15;100406.78;;;19.52;91.13
63351;BME280;54336;51.058;17.040;2022-07-05T21:19:08;100406.44;;;19.43;99.17
63351;BME280;54336;51.058;17.040;2022-07-05T21:25:02;100403.69;;;19.35;98.11
63351;BME280;54336;51.058;17.040;2022-07-05T21:30:57;100401.38;;;19.20;100.00
63351;BME280;54336;51.058;17.040;2022-07-05T21:36:50;100403.78;;;19.03;100.00
63351;BME280;54336;51.058;17.040;2022-07-05T21:42:43;100405.78;;;18.96;100.00
63351;BME280;54336;51.058;17.040;2022-07-05T21:48:36;100409.75;;;18.84;100.00
63351;BME280;54336;51.058;17.040;2022-07-05T21:54:29;100410.94;;;18.87;100.00
63351;BME280;54336;51.058;17.040;2022-07-05T22:00:23;100416.47;;;18.79;100.00
63351;BME280;54336;51.058;17.040;2022-07-05T22:06:34;100410.53;;;18.84;100.00
63351;BME280;54336;51.058;17.040;2022-07-05T22:12:26;100405.00;;;18.74;100.00
63351;BME280;54336;51.058;17.040;2022-07-05T22:18:18;100402.66;;;18.65;100.00
63351;BME280;54336;51.058;17.040;2022-07-05T22:24:11;100401.06;;;18.61;100.00
63351;BME280;54336;51.058;17.040;2022-07-05T22:30:04;100401.44;;;18.63;100.00
63351;BME280;54336;51.058;17.040;2022-07-05T22:35:57;100393.16;;;18.63;100.00
63351;BME280;54336;51.058;17.040;2022-07-05T22:41:50;100372.66;;;18.42;100.00
63351;BME280;54336;51.058;17.040;2022-07-05T22:47:42;100365.53;;;18.34;100.00
63351;BME280;54336;51.058;17.040;2022-07-05T22:53:35;100379.34;;;18.09;100.00
63351;BME280;54336;51.058;17.040;2022-07-05T22:59:27;100377.34;;;17.95;100.00
63351;BME280;54336;51.058;17.040;2022-07-05T23:05:19;100385.22;;;17.90;100.00
63351;BME280;54336;51.058;17.040;2022-07-05T23:11:11;100382.03;;;17.81;100.00
63351;BME280;54336;51.058;17.040;2022-07-05T23:17:04;100393.81;;;17.67;100.00
63351;BME280;54336;51.058;17.040;2022-07-05T23:22:57;100388.25;;;17.60;100.00
63351;BME280;54336;51.058;17.040;2022-07-05T23:28:49;100387.09;;;17.57;100.00
63351;BME280;54336;51.058;17.040;2022-07-05T23:34:41;100387.81;;;17.43;100.00
63351;BME280;54336;51.058;17.040;2022-07-05T23:40:33;100385.84;;;17.44;100.00
63351;BME280;54336;51.058;17.040;2022-07-05T23:46:26;100380.34;;;17.51;100.00
63351;BME280;54336;51.058;17.040;2022-07-05T23:52:20;100388.66;;;17.58;100.00
63351;BME280;54336;51.058;17.040;2022-07-05T23:58:13;100383.56;;;17.67;100.00
